createdAt,value
2019-03-03T00:00:57.125Z,1.40
2019-03-03T00:03:26.933Z,1.50
2019-03-03T00:05:56.495Z,1.00
2019-03-03T00:08:26.340Z,1.20
2019-03-03T00:10:55.767Z,1.00
2019-03-03T00:13:25.166Z,1.10
2019-03-03T00:15:54.971Z,1.33
2019-03-03T00:18:24.369Z,1.00
2019-03-03T00:20:53.814Z,1.00
2019-03-03T00:23:23.897Z,1.02
2019-03-03T00:25:53.301Z,1.32
2019-03-03T00:28:24.040Z,1.20
2019-03-03T00:30:53.634Z,0.85
2019-03-03T00:33:23.179Z,1.10
2019-03-03T00:35:52.750Z,1.10
2019-03-03T00:38:37.129Z,1.20
2019-03-03T00:41:24.240Z,1.20
2019-03-03T00:44:30.805Z,0.93
2019-03-03T00:47:17.522Z,1.27
2019-03-03T00:50:11.930Z,1.17
2019-03-03T00:52:52.789Z,1.00
2019-03-03T00:55:41.286Z,0.98
2019-03-03T00:58:32.905Z,1.20
2019-03-03T01:01:15.351Z,0.95
2019-03-03T01:04:02.825Z,1.00
2019-03-03T01:07:00.420Z,1.05
2019-03-03T01:09:55.240Z,0.98
2019-03-03T01:12:34.760Z,0.50
2019-03-03T01:15:23.815Z,0.90
2019-03-03T01:18:27.151Z,0.85
2019-03-03T01:21:08.676Z,0.90
2019-03-03T01:24:06.173Z,1.07
2019-03-03T01:26:35.636Z,0.80
2019-03-03T01:29:06.294Z,1.10
2019-03-03T01:31:35.740Z,0.93
2019-03-03T01:34:05.143Z,0.78
2019-03-03T01:36:34.618Z,0.90
2019-03-03T01:39:05.157Z,0.87
2019-03-03T01:41:35.023Z,1.07
2019-03-03T01:44:04.858Z,0.97
2019-03-03T01:46:34.386Z,1.00
2019-03-03T01:49:04.424Z,0.93
2019-03-03T01:51:33.825Z,0.80
2019-03-03T01:54:03.271Z,0.90
2019-03-03T01:56:32.698Z,0.90
2019-03-03T01:59:02.085Z,1.12
2019-03-03T02:01:31.462Z,0.77
2019-03-03T02:04:01.307Z,0.90
2019-03-03T02:06:30.842Z,0.90
2019-03-03T02:09:00.320Z,1.00
2019-03-03T02:11:29.958Z,1.00
2019-03-03T02:13:59.331Z,1.15
2019-03-03T02:16:28.732Z,0.80
2019-03-03T02:18:59.200Z,0.75
2019-03-03T02:21:28.569Z,0.90
2019-03-03T02:23:58.042Z,0.88
2019-03-03T02:26:27.972Z,1.15
2019-03-03T02:28:57.765Z,0.65
2019-03-03T02:31:27.224Z,1.02
2019-03-03T02:33:56.618Z,0.85
2019-03-03T02:36:26.260Z,1.20
2019-03-03T02:38:55.627Z,0.93
2019-03-03T02:41:25.679Z,0.65
2019-03-03T02:43:55.059Z,0.70
2019-03-03T02:46:24.968Z,0.75
2019-03-03T02:48:54.654Z,1.10
2019-03-03T02:51:24.032Z,0.65
2019-03-03T02:53:53.481Z,0.80
2019-03-03T02:56:22.880Z,0.80
2019-03-03T02:58:52.256Z,0.80
2019-03-03T03:01:43.664Z,0.80
2019-03-03T03:04:13.429Z,0.93
2019-03-03T03:07:01.818Z,0.90
2019-03-03T03:09:59.399Z,1.02
2019-03-03T03:12:56.976Z,0.88
2019-03-03T03:15:45.281Z,1.10
2019-03-03T03:18:32.035Z,0.90
2019-03-03T03:21:32.309Z,0.70
2019-03-03T03:24:23.390Z,0.78
2019-03-03T03:27:07.316Z,1.20
2019-03-03T03:29:51.909Z,0.68
2019-03-03T03:32:32.932Z,1.10
2019-03-03T03:35:10.738Z,0.90
2019-03-03T03:37:59.089Z,0.98
2019-03-03T03:40:47.847Z,0.85
2019-03-03T03:43:24.312Z,1.27
2019-03-03T03:46:11.373Z,0.70
2019-03-03T03:49:02.858Z,0.93
2019-03-03T03:51:50.632Z,0.80
2019-03-03T03:54:49.692Z,0.70
2019-03-03T03:57:47.051Z,0.85
2019-03-03T04:00:41.333Z,0.75
2019-03-03T04:03:28.476Z,0.70
2019-03-03T04:06:23.390Z,1.37
2019-03-03T04:08:57.238Z,1.00
2019-03-03T04:11:39.307Z,1.10
2019-03-03T04:14:43.189Z,0.70
2019-03-03T04:17:31.478Z,0.80
2019-03-03T04:20:07.100Z,0.60
2019-03-03T04:22:55.455Z,0.75
2019-03-03T04:25:42.729Z,0.90
2019-03-03T04:28:21.963Z,1.42
2019-03-03T04:31:13.387Z,1.17
2019-03-03T04:33:58.821Z,0.82
2019-03-03T04:36:45.900Z,0.98
2019-03-03T04:39:34.418Z,0.80
2019-03-03T04:42:14.934Z,0.95
2019-03-03T04:45:01.845Z,1.00
2019-03-03T04:47:41.387Z,1.12
2019-03-03T04:50:26.226Z,0.75
2019-03-03T04:53:11.747Z,0.70
2019-03-03T04:56:06.362Z,0.82
2019-03-03T04:59:03.842Z,0.80
2019-03-03T05:01:58.210Z,0.80
2019-03-03T05:05:02.760Z,0.65
2019-03-03T05:07:58.972Z,0.88
2019-03-03T05:10:47.272Z,0.45
2019-03-03T05:13:29.570Z,0.75
2019-03-03T05:16:19.409Z,1.00
2019-03-03T05:19:13.868Z,0.70
2019-03-03T05:21:43.322Z,0.50
2019-03-03T05:24:13.684Z,0.88
2019-03-03T05:26:43.083Z,0.70
2019-03-03T05:29:12.554Z,0.75
2019-03-03T05:31:43.695Z,0.70
2019-03-03T05:34:13.465Z,0.98
2019-03-03T05:36:43.228Z,0.78
2019-03-03T05:39:12.631Z,0.85
2019-03-03T05:41:42.172Z,1.12
2019-03-03T05:44:11.922Z,1.10
2019-03-03T05:46:41.364Z,1.17
2019-03-03T05:49:10.732Z,0.85
2019-03-03T05:51:40.237Z,0.82
2019-03-03T05:54:09.697Z,0.78
2019-03-03T05:56:39.750Z,0.60
2019-03-03T05:59:09.245Z,0.75
2019-03-03T06:01:38.663Z,0.55
2019-03-03T06:04:08.121Z,0.80
2019-03-03T06:06:37.586Z,1.00
2019-03-03T06:09:07.768Z,0.88
2019-03-03T06:11:37.151Z,0.50
2019-03-03T06:14:06.580Z,0.80
2019-03-03T06:16:36.053Z,0.90
2019-03-03T06:19:05.421Z,0.85
2019-03-03T06:21:35.033Z,0.90
2019-03-03T06:24:04.544Z,0.60
2019-03-03T06:26:33.976Z,0.70
2019-03-03T06:29:03.413Z,0.55
2019-03-03T06:31:32.910Z,0.50
2019-03-03T06:34:02.394Z,0.90
2019-03-03T06:36:32.134Z,1.10
2019-03-03T06:39:01.822Z,0.98
2019-03-03T06:41:31.754Z,0.95
2019-03-03T06:44:01.217Z,0.98
2019-03-03T06:46:30.980Z,1.00
2019-03-03T06:49:00.464Z,0.88
2019-03-03T06:51:29.959Z,1.10
2019-03-03T06:54:00.178Z,1.30
2019-03-03T06:56:29.563Z,0.82
2019-03-03T06:58:59.328Z,1.10
2019-03-03T07:01:28.744Z,1.30
2019-03-03T07:03:58.968Z,1.40
2019-03-03T07:06:29.079Z,0.65
2019-03-03T07:08:59.468Z,1.20
2019-03-03T07:11:28.855Z,1.00
2019-03-03T07:13:58.635Z,0.90
2019-03-03T07:16:27.998Z,1.15
2019-03-03T07:18:57.746Z,1.27
2019-03-03T07:21:28.090Z,1.10
2019-03-03T07:23:57.978Z,1.10
2019-03-03T07:26:27.353Z,1.40
2019-03-03T07:28:56.862Z,1.40
2019-03-03T07:31:26.242Z,1.27
2019-03-03T07:33:58.420Z,1.22
2019-03-03T07:36:27.939Z,0.82
2019-03-03T07:38:57.372Z,1.63
2019-03-03T07:41:27.035Z,1.63
2019-03-03T07:43:56.632Z,1.70
2019-03-03T07:46:26.351Z,1.73
2019-03-03T07:48:57.096Z,1.43
2019-03-03T07:51:26.524Z,1.27
2019-03-03T07:53:57.233Z,1.77
2019-03-03T07:56:26.653Z,1.37
2019-03-03T07:58:56.038Z,1.27
2019-03-03T08:01:26.434Z,1.50
2019-03-03T08:03:56.219Z,1.70
2019-03-03T08:06:26.190Z,1.50
2019-03-03T08:08:56.061Z,1.63
2019-03-03T08:11:25.499Z,1.73
2019-03-03T08:13:54.958Z,1.13
2019-03-03T08:16:25.457Z,1.30
2019-03-03T08:18:55.314Z,1.00
2019-03-03T08:21:24.735Z,1.13
2019-03-03T08:23:54.121Z,0.80
2019-03-03T08:26:23.643Z,1.20
2019-03-03T08:28:53.045Z,0.90
2019-03-03T08:31:22.490Z,1.23
2019-03-03T08:33:51.902Z,0.80
2019-03-03T08:36:21.397Z,1.20
2019-03-03T08:38:51.670Z,0.70
2019-03-03T08:41:21.223Z,1.07
2019-03-03T08:44:00.689Z,1.10
2019-03-03T08:46:51.489Z,1.03
2019-03-03T08:49:41.788Z,1.00
2019-03-03T08:52:16.056Z,0.80
2019-03-03T08:55:09.778Z,1.23
2019-03-03T08:57:54.470Z,1.37
2019-03-03T09:00:41.225Z,1.87
2019-03-03T09:03:25.986Z,1.70
2019-03-03T09:06:15.873Z,1.40
2019-03-03T09:08:51.121Z,1.70
2019-03-03T09:11:38.438Z,1.60
2019-03-03T09:14:30.238Z,1.27
2019-03-03T09:17:20.555Z,1.50
2019-03-03T09:20:07.220Z,1.30
2019-03-03T09:22:54.187Z,1.40
2019-03-03T09:25:42.999Z,1.43
2019-03-03T09:28:43.670Z,1.83
2019-03-03T09:31:27.894Z,1.40
2019-03-03T09:34:15.007Z,1.60
2019-03-03T09:36:54.007Z,1.60
2019-03-03T09:39:48.146Z,2.10
2019-03-03T09:42:39.983Z,1.80
2019-03-03T09:45:24.655Z,1.73
2019-03-03T09:48:11.683Z,2.07
2019-03-03T09:51:15.168Z,1.73
2019-03-03T09:53:55.347Z,1.87
2019-03-03T09:56:53.258Z,1.50
2019-03-03T09:59:36.966Z,1.33
2019-03-03T10:02:40.223Z,1.43
2019-03-03T10:05:34.767Z,1.97
2019-03-03T10:08:26.766Z,1.80
2019-03-03T10:11:33.359Z,1.43
2019-03-03T10:14:11.423Z,1.67
2019-03-03T10:17:08.441Z,1.57
2019-03-03T10:19:59.582Z,1.73
2019-03-03T10:22:44.533Z,1.60
2019-03-03T10:25:38.842Z,1.80
2019-03-03T10:28:39.158Z,1.60
2019-03-03T10:31:32.152Z,2.00
2019-03-03T10:34:38.664Z,2.17
2019-03-03T10:37:27.286Z,1.87
2019-03-03T10:40:04.307Z,1.80
2019-03-03T10:42:51.549Z,1.80
2019-03-03T10:45:39.833Z,1.30
2019-03-03T10:48:46.423Z,1.80
2019-03-03T10:51:40.794Z,1.20
2019-03-03T10:54:27.476Z,1.00
2019-03-03T10:57:18.935Z,1.73
2019-03-03T11:00:07.283Z,1.70
2019-03-03T11:02:47.699Z,1.87
2019-03-03T11:05:44.922Z,1.47
2019-03-03T11:08:26.977Z,1.60
2019-03-03T11:11:07.811Z,1.70
2019-03-03T11:14:05.447Z,1.77
2019-03-03T11:17:08.991Z,1.60
2019-03-03T11:19:57.591Z,1.87
2019-03-03T11:22:33.526Z,1.80
2019-03-03T11:25:09.658Z,1.60
2019-03-03T11:27:47.880Z,2.00
2019-03-03T11:30:39.521Z,1.53
2019-03-03T11:33:36.689Z,1.20
2019-03-03T11:36:23.591Z,1.83
2019-03-03T11:39:09.739Z,2.27
2019-03-03T11:42:10.009Z,1.77
2019-03-03T11:44:59.488Z,1.83
2019-03-03T11:48:06.015Z,1.80
2019-03-03T11:50:54.342Z,1.73
2019-03-03T11:53:42.818Z,1.73
2019-03-03T11:56:43.449Z,1.47
2019-03-03T11:59:19.229Z,1.23
2019-03-03T12:02:06.260Z,1.50
2019-03-03T12:04:51.517Z,1.30
2019-03-03T12:07:51.721Z,1.30
2019-03-03T12:10:34.223Z,1.40
2019-03-03T12:13:21.329Z,1.20
2019-03-03T12:16:12.406Z,1.57
2019-03-03T12:18:59.228Z,1.40
2019-03-03T12:21:50.287Z,1.30
2019-03-03T12:24:47.712Z,1.30
2019-03-03T12:27:34.690Z,1.60
2019-03-03T12:30:41.304Z,1.23
2019-03-03T12:33:22.458Z,1.03
2019-03-03T12:36:23.119Z,1.60
2019-03-03T12:39:11.836Z,0.80
2019-03-03T12:42:09.772Z,1.30
2019-03-03T12:45:09.980Z,1.30
2019-03-03T12:47:48.983Z,1.30
2019-03-03T12:50:36.273Z,1.50
2019-03-03T12:53:15.068Z,1.30
2019-03-03T12:55:49.702Z,1.60
2019-03-03T12:58:36.863Z,1.60
2019-03-03T13:01:24.234Z,1.07
2019-03-03T13:04:18.645Z,1.13
2019-03-03T13:07:05.337Z,1.30
2019-03-03T13:09:52.145Z,1.60
2019-03-03T13:12:38.870Z,1.37
2019-03-03T13:15:17.697Z,1.30
2019-03-03T13:17:53.967Z,1.30
2019-03-03T13:20:39.936Z,1.20
2019-03-03T13:23:34.105Z,1.20
2019-03-03T13:26:21.616Z,1.30
2019-03-03T13:29:04.618Z,1.43
2019-03-03T13:31:43.828Z,1.50
2019-03-03T13:34:41.444Z,1.80
2019-03-03T13:37:28.424Z,1.53
2019-03-03T13:40:15.175Z,1.30
2019-03-03T13:43:12.827Z,1.27
2019-03-03T13:45:42.567Z,1.23
2019-03-03T13:48:12.312Z,1.53
2019-03-03T13:50:44.994Z,1.33
2019-03-03T13:53:14.885Z,1.20
2019-03-03T13:55:44.491Z,1.50
2019-03-03T13:58:13.987Z,1.30
2019-03-03T14:00:43.880Z,1.70
2019-03-03T14:03:13.477Z,1.67
2019-03-03T14:05:43.389Z,1.63
2019-03-03T14:08:12.843Z,1.43
2019-03-03T14:10:42.402Z,1.60
2019-03-03T14:13:12.090Z,1.20
2019-03-03T14:15:41.500Z,1.70
2019-03-03T14:18:11.347Z,1.57
2019-03-03T14:20:40.904Z,1.67
2019-03-03T14:23:10.382Z,1.60
2019-03-03T14:25:39.872Z,1.97
2019-03-03T14:28:09.324Z,1.77
2019-03-03T14:30:39.031Z,1.60
2019-03-03T14:33:08.424Z,1.90
2019-03-03T14:35:37.812Z,2.03
2019-03-03T14:38:07.367Z,2.27
2019-03-03T14:40:37.079Z,1.80
2019-03-03T14:43:07.205Z,1.60
2019-03-03T14:45:36.596Z,1.53
2019-03-03T14:48:06.187Z,2.17
2019-03-03T14:50:36.165Z,1.60
2019-03-03T14:53:05.636Z,2.20
2019-03-03T14:55:35.180Z,2.37
2019-03-03T14:58:04.887Z,1.70
2019-03-03T15:00:34.728Z,1.40
2019-03-03T15:03:06.323Z,1.43
2019-03-03T15:05:36.402Z,1.80
2019-03-03T15:08:06.459Z,1.90
2019-03-03T15:10:35.918Z,1.37
2019-03-03T15:13:06.355Z,1.30
2019-03-03T15:15:36.041Z,1.60
2019-03-03T15:18:05.836Z,1.80
2019-03-03T15:20:35.512Z,1.60
2019-03-03T15:23:05.516Z,1.90
2019-03-03T15:25:34.957Z,1.87
2019-03-03T15:28:04.758Z,1.90
2019-03-03T15:30:34.741Z,1.40
2019-03-03T15:33:04.532Z,1.63
2019-03-03T15:35:36.445Z,2.07
2019-03-03T15:38:06.566Z,1.90
2019-03-03T15:40:38.008Z,1.70
2019-03-03T15:43:07.393Z,2.00
2019-03-03T15:45:36.804Z,1.60
2019-03-03T15:48:06.318Z,1.60
2019-03-03T15:50:35.772Z,1.97
2019-03-03T15:53:05.247Z,2.13
2019-03-03T15:55:34.642Z,1.80
2019-03-03T15:58:04.218Z,2.17
2019-03-03T16:00:33.985Z,2.00
2019-03-03T16:03:03.439Z,1.80
2019-03-03T16:05:33.064Z,2.20
2019-03-03T16:08:03.015Z,1.60
2019-03-03T16:10:32.428Z,1.80
2019-03-03T16:13:03.778Z,1.93
2019-03-03T16:15:33.204Z,1.40
2019-03-03T16:18:02.646Z,2.50
2019-03-03T16:20:32.510Z,1.50
2019-03-03T16:23:02.182Z,2.13
2019-03-03T16:25:32.367Z,1.70
2019-03-03T16:28:01.861Z,1.47
2019-03-03T16:30:31.344Z,1.80
2019-03-03T16:33:00.728Z,1.67
2019-03-03T16:35:30.318Z,1.53
2019-03-03T16:37:59.762Z,1.60
2019-03-03T16:40:39.020Z,2.00
2019-03-03T16:43:00.416Z,1.90
2019-03-03T16:45:30.221Z,2.17
2019-03-03T16:47:59.646Z,2.03
2019-03-03T16:50:29.074Z,1.90
2019-03-03T16:52:58.603Z,2.00
2019-03-03T16:55:29.082Z,1.83
2019-03-03T16:57:58.507Z,1.97
2019-03-03T17:00:27.959Z,2.30
2019-03-03T17:02:57.541Z,1.97
2019-03-03T17:05:29.006Z,2.13
2019-03-03T17:07:58.949Z,2.03
2019-03-03T17:10:28.311Z,2.73
2019-03-03T17:12:57.914Z,2.23
2019-03-03T17:15:27.327Z,2.63
2019-03-03T17:17:57.561Z,2.73
2019-03-03T17:20:27.218Z,3.03
2019-03-03T17:22:57.102Z,3.47
2019-03-03T17:25:26.573Z,2.80
2019-03-03T17:27:56.349Z,2.70
2019-03-03T17:30:26.612Z,3.07
2019-03-03T17:32:56.471Z,3.23
2019-03-03T17:35:26.259Z,2.73
2019-03-03T17:37:56.853Z,3.10
2019-03-03T17:40:26.340Z,2.90
2019-03-03T17:42:57.078Z,3.43
2019-03-03T17:45:26.669Z,3.40
2019-03-03T17:47:56.093Z,3.87
2019-03-03T17:50:25.534Z,5.07
2019-03-03T17:52:54.905Z,4.10
2019-03-03T17:55:24.451Z,5.73
2019-03-03T17:57:54.151Z,5.60
2019-03-03T18:00:25.726Z,6.20
2019-03-03T18:02:57.670Z,6.40
2019-03-03T18:05:27.541Z,5.70
2019-03-03T18:07:57.048Z,6.50
2019-03-03T18:10:26.539Z,5.20
2019-03-03T18:12:55.964Z,4.70
2019-03-03T18:15:25.354Z,5.57
2019-03-03T18:17:54.868Z,4.80
2019-03-03T18:20:25.313Z,4.03
2019-03-03T18:22:54.991Z,3.83
2019-03-03T18:25:24.874Z,5.83
2019-03-03T18:27:54.328Z,4.03
2019-03-03T18:30:23.915Z,4.50
2019-03-03T18:32:53.349Z,3.77
2019-03-03T18:35:22.801Z,4.10
2019-03-03T18:37:52.552Z,4.80
2019-03-03T18:40:22.824Z,4.27
2019-03-03T18:42:52.336Z,4.17
2019-03-03T18:45:21.723Z,4.00
2019-03-03T18:47:51.389Z,3.80
2019-03-03T18:50:20.897Z,4.00
2019-03-03T18:52:50.278Z,3.80
2019-03-03T18:55:21.987Z,4.60
2019-03-03T18:57:52.172Z,4.43
2019-03-03T19:00:23.751Z,3.77
2019-03-03T19:02:54.384Z,4.07
2019-03-03T19:05:24.079Z,4.50
2019-03-03T19:07:53.939Z,3.83
2019-03-03T19:10:26.439Z,5.00
2019-03-03T19:12:58.083Z,3.77
2019-03-03T19:15:27.488Z,3.50
2019-03-03T19:17:57.284Z,3.53
2019-03-03T19:20:26.858Z,3.30
2019-03-03T19:22:56.212Z,2.87
2019-03-03T19:25:28.017Z,3.10
2019-03-03T19:27:57.818Z,3.23
2019-03-03T19:30:29.703Z,4.00
2019-03-03T19:33:20.946Z,3.47
2019-03-03T19:35:50.919Z,3.77
2019-03-03T19:38:22.818Z,3.40
2019-03-03T19:40:55.910Z,3.40
2019-03-03T19:43:27.926Z,3.23
2019-03-03T19:45:57.614Z,3.87
2019-03-03T19:48:27.454Z,4.03
2019-03-03T19:50:58.999Z,3.10
2019-03-03T19:53:28.540Z,4.70
2019-03-03T19:55:58.669Z,4.27
2019-03-03T19:58:28.103Z,3.90
2019-03-03T20:00:57.546Z,4.37
2019-03-03T20:03:26.945Z,3.93
2019-03-03T20:05:57.678Z,2.80
2019-03-03T20:08:27.375Z,2.40
2019-03-03T20:10:57.877Z,2.20
2019-03-03T20:13:27.256Z,2.53
2019-03-03T20:15:57.180Z,2.50
2019-03-03T20:18:27.905Z,2.57
2019-03-03T20:20:57.771Z,2.30
2019-03-03T20:23:27.256Z,2.20
2019-03-03T20:25:57.518Z,2.50
2019-03-03T20:28:28.198Z,2.77
2019-03-03T20:30:58.198Z,2.10
2019-03-03T20:33:27.645Z,2.17
2019-03-03T20:35:57.445Z,2.27
2019-03-03T20:38:27.252Z,1.87
2019-03-03T20:40:57.564Z,2.20
2019-03-03T20:43:29.639Z,2.60
2019-03-03T20:45:59.004Z,1.93
2019-03-03T20:48:28.380Z,2.40
2019-03-03T20:50:57.928Z,2.10
2019-03-03T20:53:28.229Z,2.33
2019-03-03T20:55:57.601Z,2.37
2019-03-03T20:58:27.408Z,2.00
2019-03-03T21:00:56.779Z,2.63
2019-03-03T21:03:26.151Z,2.40
2019-03-03T21:05:55.545Z,2.47
2019-03-03T21:08:25.658Z,2.70
2019-03-03T21:10:55.261Z,1.90
2019-03-03T21:13:24.706Z,2.30
2019-03-03T21:15:54.149Z,2.30
2019-03-03T21:18:23.484Z,1.63
2019-03-03T21:20:53.078Z,2.30
2019-03-03T21:23:22.479Z,2.67
2019-03-03T21:25:51.951Z,2.30
2019-03-03T21:28:21.488Z,2.57
2019-03-03T21:30:50.893Z,2.73
2019-03-03T21:33:20.517Z,2.57
2019-03-03T21:35:50.105Z,2.70
2019-03-03T21:38:20.861Z,2.60
2019-03-03T21:40:50.518Z,2.47
2019-03-03T21:43:21.288Z,2.23
2019-03-03T21:45:50.793Z,3.10
2019-03-03T21:48:20.633Z,2.40
2019-03-03T21:50:50.040Z,2.53
2019-03-03T21:53:19.419Z,1.90
2019-03-03T21:55:48.890Z,2.47
2019-03-03T21:58:18.253Z,2.17
2019-03-03T22:00:48.116Z,2.10
2019-03-03T22:03:17.994Z,2.07
2019-03-03T22:05:47.791Z,2.37
2019-03-03T22:08:17.334Z,2.47
2019-03-03T22:10:47.249Z,2.10
2019-03-03T22:15:23.692Z,2.60
2019-03-03T22:17:53.198Z,2.30
2019-03-03T22:20:22.506Z,2.40
2019-03-03T22:22:51.899Z,2.67
2019-03-03T22:25:21.411Z,2.60
2019-03-03T22:27:52.047Z,2.40
2019-03-03T22:33:16.526Z,3.00
2019-03-03T22:35:46.032Z,2.33
2019-03-03T22:38:54.740Z,3.17
2019-03-03T22:47:40.978Z,2.53
2019-03-03T22:50:51.098Z,2.43
2019-03-03T22:56:16.422Z,2.50
2019-03-03T22:58:45.805Z,2.30
2019-03-03T23:02:05.282Z,2.30
2019-03-03T23:05:12.629Z,2.07
2019-03-03T23:08:04.039Z,2.27
2019-03-03T23:11:11.423Z,2.00
2019-03-03T23:14:02.940Z,2.40
2019-03-03T23:17:10.744Z,2.57
2019-03-03T23:20:02.619Z,2.10
2019-03-03T23:23:10.466Z,2.03
2019-03-03T23:25:59.955Z,2.07
2019-03-03T23:28:29.337Z,2.50
2019-03-03T23:31:38.399Z,2.10
2019-03-03T23:34:08.065Z,2.30
2019-03-03T23:36:37.884Z,1.90
2019-03-03T23:42:17.303Z,1.63
2019-03-03T23:48:02.157Z,2.40
2019-03-03T23:50:31.888Z,3.17
2019-03-03T23:53:20.328Z,1.93
